Time;durP1;ratioP1;P1;durP2;ratioP2;P2;SDS_P1;SDS_P2;PMS_P1;PMS_P2;Temp;Humidity;BMP_temperature;BMP_pressure;BME280_temperature;BME280_humidity;BME280_pressure;Samples;Min_cycle;Max_cycle;Signal;HPM_P1;HPM_P2
2023/01/31 00:00:15;;;;;;;19.80;2.20;;;;;;;;;;5052590;28;20045;-72
2023/01/31 00:02:41;;;;;;;21.83;2.92;;;;;;;;;;5052247;28;20080;-72
2023/01/31 00:05:08;;;;;;;18.25;2.60;;;;;;;;;;5034617;28;20052;-72
2023/01/31 00:07:34;;;;;;;19.38;2.42;;;;;;;;;;5051093;28;20052;-71
2023/01/31 00:10:00;;;;;;;26.45;2.30;;;;;;;;;;5050886;28;20519;-71
2023/01/31 00:12:26;;;;;;;19.63;3.08;;;;;;;;;;5050926;28;20514;-72
2023/01/31 00:14:52;;;;;;;21.77;2.13;;;;;;;;;;5051984;28;20107;-72
2023/01/31 00:17:18;;;;;;;27.60;2.53;;;;;;;;;;5050799;28;20041;-72
2023/01/31 00:19:44;;;;;;;24.52;2.58;;;;;;;;;;5050587;28;20037;-72
2023/01/31 00:22:10;;;;;;;14.90;1.85;;;;;;;;;;5050886;28;20124;-72
2023/01/31 00:24:36;;;;;;;16.75;2.03;;;;;;;;;;5050914;28;20037;-72
2023/01/31 00:27:02;;;;;;;21.05;2.42;;;;;;;;;;5050438;28;20048;-72
2023/01/31 00:29:28;;;;;;;21.65;2.25;;;;;;;;;;5051025;28;20456;-72
2023/01/31 00:31:55;;;;;;;22.33;2.13;;;;;;;;;;5051717;28;20045;-72
2023/01/31 00:34:21;;;;;;;19.13;1.98;;;;;;;;;;5033934;28;20045;-72
2023/01/31 00:36:47;;;;;;;15.18;2.20;;;;;;;;;;5050335;28;20091;-72
2023/01/31 00:39:13;;;;;;;14.80;2.22;;;;;;;;;;5051922;28;20040;-72
2023/01/31 00:41:39;;;;;;;12.95;1.90;;;;;;;;;;5050689;28;20045;-72
2023/01/31 00:44:05;;;;;;;12.73;1.83;;;;;;;;;;5051864;28;20501;-71
2023/01/31 00:46:31;;;;;;;18.58;1.92;;;;;;;;;;5050701;28;20052;-72
2023/01/31 00:48:57;;;;;;;24.23;2.33;;;;;;;;;;5036716;28;20514;-72
2023/01/31 00:51:24;;;;;;;17.05;2.17;;;;;;;;;;5054721;28;20045;-72
2023/01/31 00:53:50;;;;;;;20.30;2.10;;;;;;;;;;5054132;28;20043;-72
2023/01/31 00:56:24;;;;;;;18.58;2.03;;;;;;;;;;5038128;28;20037;-72
2023/01/31 00:58:51;;;;;;;16.92;1.98;;;;;;;;;;5054110;28;20057;-72
2023/01/31 01:01:27;;;;;;;18.98;2.17;;;;;;;;;;5054582;28;20041;-72
2023/01/31 01:03:54;;;;;;;19.80;2.47;;;;;;;;;;5054277;28;20045;-72
2023/01/31 01:06:20;;;;;;;17.05;1.50;;;;;;;;;;5054529;28;20126;-72
2023/01/31 01:08:46;;;;;;;13.10;1.98;;;;;;;;;;5054653;28;20513;-71
2023/01/31 01:11:18;;;;;;;18.10;2.15;;;;;;;;;;5053794;28;20037;-72
2023/01/31 01:13:44;;;;;;;20.60;2.72;;;;;;;;;;5036710;28;20171;-72
2023/01/31 01:16:12;;;;;;;18.45;1.98;;;;;;;;;;5054050;28;20156;-72
2023/01/31 01:18:38;;;;;;;15.02;1.75;;;;;;;;;;5054407;28;20394;-72
2023/01/31 01:21:08;;;;;;;14.15;1.77;;;;;;;;;;5054010;28;20494;-72
2023/01/31 01:23:34;;;;;;;20.35;2.08;;;;;;;;;;5054219;28;20068;-72
2023/01/31 01:26:01;;;;;;;13.68;1.50;;;;;;;;;;5053661;28;20048;-72
2023/01/31 01:28:27;;;;;;;10.07;2.05;;;;;;;;;;5054507;28;20048;-72
2023/01/31 01:30:53;;;;;;;14.40;1.95;;;;;;;;;;5037302;28;20486;-72
2023/01/31 01:33:19;;;;;;;14.80;1.88;;;;;;;;;;5053900;28;20405;-72
2023/01/31 01:35:45;;;;;;;13.13;1.80;;;;;;;;;;5054031;28;20077;-72
2023/01/31 01:38:11;;;;;;;19.65;1.95;;;;;;;;;;5053452;28;20049;-72
2023/01/31 01:40:38;;;;;;;17.70;2.15;;;;;;;;;;5053951;28;20060;-72
2023/01/31 01:43:04;;;;;;;13.13;1.70;;;;;;;;;;5053619;28;20041;-72
2023/01/31 01:45:30;;;;;;;16.88;2.83;;;;;;;;;;5053670;28;20041;-72
2023/01/31 01:47:59;;;;;;;17.27;2.03;;;;;;;;;;5054632;28;20043;-72
2023/01/31 01:50:30;;;;;;;13.02;1.60;;;;;;;;;;5053563;28;20040;-72
2023/01/31 01:53:00;;;;;;;18.17;2.40;;;;;;;;;;5053234;28;20037;-72
2023/01/31 01:55:31;;;;;;;15.77;2.38;;;;;;;;;;5053798;28;20049;-72
2023/01/31 01:58:00;;;;;;;12.93;2.30;;;;;;;;;;5052850;28;20045;-72
2023/01/31 02:00:28;;;;;;;18.95;2.13;;;;;;;;;;5053312;28;20052;-72
2023/01/31 02:02:56;;;;;;;15.70;2.22;;;;;;;;;;5053674;28;20489;-72
2023/01/31 02:05:42;;;;;;;15.43;1.88;;;;;;;;;;5054663;28;20037;-72
2023/01/31 02:08:09;;;;;;;15.52;2.20;;;;;;;;;;5053136;28;20414;-72
2023/01/31 02:10:55;;;;;;;20.48;2.35;;;;;;;;;;5053550;28;20067;-72
2023/01/31 02:13:22;;;;;;;18.25;2.40;;;;;;;;;;5042722;28;20444;-72
2023/01/31 02:15:48;;;;;;;20.77;1.80;;;;;;;;;;5036485;28;20106;-72
2023/01/31 02:18:15;;;;;;;15.52;1.98;;;;;;;;;;5053002;28;20044;-72
2023/01/31 02:20:50;;;;;;;16.88;1.75;;;;;;;;;;5052976;28;20098;-72
2023/01/31 02:23:25;;;;;;;12.55;1.75;;;;;;;;;;5052680;28;20037;-72
2023/01/31 02:26:10;;;;;;;16.38;1.73;;;;;;;;;;5036462;28;20048;-72
2023/01/31 02:28:54;;;;;;;13.73;1.80;;;;;;;;;;5039419;28;20037;-72
2023/01/31 02:31:23;;;;;;;14.68;2.60;;;;;;;;;;5052723;28;20040;-72
2023/01/31 02:33:49;;;;;;;24.17;2.50;;;;;;;;;;5052843;28;20036;-72
2023/01/31 02:36:24;;;;;;;19.90;2.47;;;;;;;;;;5052497;28;20041;-72
2023/01/31 02:38:55;;;;;;;16.83;2.05;;;;;;;;;;5036072;28;20045;-72
2023/01/31 02:41:39;;;;;;;21.42;2.35;;;;;;;;;;5052575;28;20434;-72
2023/01/31 02:47:01;;;;;;;17.48;2.60;;;;;;;;;;5052663;28;20044;-72
2023/01/31 02:49:33;;;;;;;12.88;2.38;;;;;;;;;;5035789;28;20040;-72
2023/01/31 02:52:23;;;;;;;19.58;2.60;;;;;;;;;;5052457;28;20120;-72
2023/01/31 02:57:58;;;;;;;22.08;2.35;;;;;;;;;;5052124;28;20390;-72
2023/01/31 03:00:25;;;;;;;13.65;2.22;;;;;;;;;;5052190;28;20514;-72
2023/01/31 03:02:51;;;;;;;20.30;2.00;;;;;;;;;;5048925;28;20466;-72
2023/01/31 03:05:18;;;;;;;13.45;2.05;;;;;;;;;;5051540;28;20120;-72
2023/01/31 03:07:47;;;;;;;17.23;2.85;;;;;;;;;;5053265;28;20072;-72
2023/01/31 03:10:22;;;;;;;15.57;2.45;;;;;;;;;;5052482;28;20127;-72
2023/01/31 03:12:58;;;;;;;17.20;2.20;;;;;;;;;;5051957;28;20136;-72
2023/01/31 03:15:24;;;;;;;;;;;;;;;;;;5052030;28;20049;-72
2023/01/31 03:18:10;;;;;;;16.05;2.95;;;;;;;;;;5052104;28;20000;-72
2023/01/31 03:20:43;;;;;;;25.33;2.83;;;;;;;;;;5052111;28;20033;-72
2023/01/31 03:23:18;;;;;;;14.75;2.22;;;;;;;;;;5051555;28;20068;-72
2023/01/31 03:25:44;;;;;;;20.55;3.05;;;;;;;;;;5051859;28;20047;-72
2023/01/31 03:28:20;;;;;;;24.73;2.85;;;;;;;;;;5051169;28;20047;-72
2023/01/31 03:30:56;;;;;;;24.92;3.10;;;;;;;;;;5051747;28;20037;-72
2023/01/31 03:33:28;;;;;;;14.30;2.85;;;;;;;;;;5051181;28;20045;-72
2023/01/31 03:36:10;;;;;;;21.10;3.03;;;;;;;;;;5039017;28;20148;-72
2023/01/31 03:38:41;;;;;;;22.67;3.25;;;;;;;;;;5052132;28;20111;-72
2023/01/31 03:41:29;;;;;;;18.27;2.70;;;;;;;;;;5053149;28;20116;-73
2023/01/31 03:43:57;;;;;;;15.95;2.55;;;;;;;;;;5051768;28;20485;-73
2023/01/31 03:46:27;;;;;;;20.42;3.17;;;;;;;;;;5034466;28;20041;-74
2023/01/31 03:48:54;;;;;;;21.13;2.90;;;;;;;;;;5051374;28;20044;-73
2023/01/31 03:51:22;;;;;;;20.13;2.83;;;;;;;;;;5034384;28;20044;-73
2023/01/31 03:53:52;;;;;;;18.52;2.50;;;;;;;;;;5051274;28;20037;-73
2023/01/31 03:56:24;;;;;;;26.48;3.83;;;;;;;;;;5050923;28;20054;-73
2023/01/31 03:58:54;;;;;;;25.45;3.17;;;;;;;;;;5051147;28;20559;-73
2023/01/31 04:01:22;;;;;;;27.83;4.00;;;;;;;;;;5050812;28;20045;-73
2023/01/31 04:03:51;;;;;;;17.38;3.83;;;;;;;;;;5051816;28;20513;-73
2023/01/31 04:06:17;;;;;;;22.05;3.92;;;;;;;;;;5050825;28;20049;-73
2023/01/31 04:08:43;;;;;;;22.27;3.08;;;;;;;;;;5051061;28;20048;-73
2023/01/31 04:11:12;;;;;;;22.27;3.13;;;;;;;;;;5051349;28;20434;-72
2023/01/31 04:13:38;;;;;;;22.13;3.10;;;;;;;;;;5034447;28;20033;-72
2023/01/31 04:16:04;;;;;;;19.58;2.67;;;;;;;;;;5034074;28;20072;-72
2023/01/31 04:18:30;;;;;;;23.88;3.05;;;;;;;;;;5050507;28;20095;-72
2023/01/31 04:20:56;;;;;;;27.45;3.67;;;;;;;;;;5050881;28;20036;-72
2023/01/31 04:23:23;;;;;;;31.52;3.60;;;;;;;;;;5049593;28;20127;-72
2023/01/31 04:25:49;;;;;;;25.80;4.45;;;;;;;;;;5034183;28;20045;-72
2023/01/31 04:28:16;;;;;;;21.75;3.30;;;;;;;;;;5050374;28;20119;-73
2023/01/31 04:30:42;;;;;;;24.23;3.22;;;;;;;;;;5050726;28;20049;-73
2023/01/31 04:33:08;;;;;;;22.70;3.25;;;;;;;;;;5050745;28;20124;-73
2023/01/31 04:35:34;;;;;;;23.70;3.22;;;;;;;;;;5033831;28;20044;-73
2023/01/31 04:38:00;;;;;;;21.58;4.00;;;;;;;;;;5050783;28;20087;-73
2023/01/31 04:40:26;;;;;;;22.48;4.38;;;;;;;;;;5050479;28;20025;-73
2023/01/31 04:42:52;;;;;;;25.40;3.63;;;;;;;;;;5050779;28;20076;-73
2023/01/31 04:45:18;;;;;;;24.05;3.50;;;;;;;;;;5050269;28;20041;-73
2023/01/31 04:47:44;;;;;;;24.27;3.10;;;;;;;;;;5050731;28;20175;-73
2023/01/31 04:50:10;;;;;;;25.05;3.75;;;;;;;;;;5033993;28;20049;-73
2023/01/31 04:52:36;;;;;;;20.85;3.05;;;;;;;;;;5033560;28;20090;-72
2023/01/31 04:55:02;;;;;;;27.13;4.13;;;;;;;;;;5033941;28;20037;-72
2023/01/31 04:57:29;;;;;;;21.42;3.25;;;;;;;;;;5050212;28;20138;-73
2023/01/31 04:59:55;;;;;;;22.38;3.80;;;;;;;;;;5033853;28;20099;-73
2023/01/31 05:02:22;;;;;;;25.52;3.85;;;;;;;;;;5046169;28;20045;-73
2023/01/31 05:04:48;;;;;;;25.65;4.38;;;;;;;;;;5034416;28;20433;-73
2023/01/31 05:07:14;;;;;;;26.60;3.97;;;;;;;;;;5049097;28;20044;-72
2023/01/31 05:09:41;;;;;;;24.48;4.07;;;;;;;;;;5050060;28;20045;-72
2023/01/31 05:12:08;;;;;;;25.83;4.47;;;;;;;;;;5050557;28;20039;-72
2023/01/31 05:14:34;;;;;;;20.08;3.70;;;;;;;;;;5050002;28;20041;-73
2023/01/31 05:17:00;;;;;;;21.17;3.45;;;;;;;;;;5050145;28;20091;-73
2023/01/31 05:19:27;;;;;;;27.80;4.32;;;;;;;;;;5033293;28;20496;-72
2023/01/31 05:21:58;;;;;;;24.73;5.00;;;;;;;;;;5050217;28;20044;-72
2023/01/31 05:24:26;;;;;;;35.05;4.70;;;;;;;;;;5050494;28;20604;-73
2023/01/31 05:26:55;;;;;;;25.40;3.40;;;;;;;;;;5050377;28;20056;-72
2023/01/31 05:29:21;;;;;;;28.45;4.70;;;;;;;;;;5050123;28;20516;-73
2023/01/31 05:31:50;;;;;;;26.70;4.32;;;;;;;;;;5050225;28;20037;-72
2023/01/31 05:34:16;;;;;;;24.83;3.95;;;;;;;;;;5051695;28;20071;-72
2023/01/31 05:36:42;;;;;;;22.75;4.88;;;;;;;;;;5053600;28;20041;-73
2023/01/31 05:39:09;;;;;;;23.42;4.47;;;;;;;;;;5054043;28;20066;-72
2023/01/31 05:41:35;;;;;;;25.52;4.35;;;;;;;;;;5053365;28;20052;-72
2023/01/31 05:44:01;;;;;;;23.45;4.38;;;;;;;;;;5054024;28;20565;-72
2023/01/31 05:46:27;;;;;;;33.15;5.15;;;;;;;;;;5036993;28;20072;-73
2023/01/31 05:48:53;;;;;;;24.58;4.28;;;;;;;;;;5053525;28;20048;-73
2023/01/31 05:51:19;;;;;;;30.15;5.20;;;;;;;;;;5037025;28;20136;-72
2023/01/31 05:53:47;;;;;;;21.63;4.78;;;;;;;;;;5052984;28;20032;-73
2023/01/31 05:56:13;;;;;;;26.00;4.63;;;;;;;;;;5054944;28;20079;-72
2023/01/31 05:58:39;;;;;;;23.10;4.55;;;;;;;;;;5036360;28;20053;-73
2023/01/31 06:01:05;;;;;;;22.58;4.45;;;;;;;;;;5053491;28;20124;-73
2023/01/31 06:03:31;;;;;;;25.02;4.20;;;;;;;;;;5036630;28;20048;-73
2023/01/31 06:05:57;;;;;;;30.15;5.05;;;;;;;;;;5053719;28;20051;-73
2023/01/31 06:08:24;;;;;;;27.88;4.90;;;;;;;;;;5054657;28;20044;-73
2023/01/31 06:10:50;;;;;;;23.23;4.93;;;;;;;;;;5053491;28;20120;-73
2023/01/31 06:13:16;;;;;;;31.27;4.80;;;;;;;;;;5053258;28;20052;-73
2023/01/31 06:15:42;;;;;;;31.42;5.50;;;;;;;;;;5053061;28;20049;-73
2023/01/31 06:18:08;;;;;;;26.73;3.65;;;;;;;;;;5053212;28;20045;-73
2023/01/31 06:20:34;;;;;;;27.80;4.57;;;;;;;;;;5052687;28;20037;-73
2023/01/31 06:23:01;;;;;;;25.90;4.65;;;;;;;;;;5053192;28;20121;-72
2023/01/31 06:25:27;;;;;;;27.17;5.38;;;;;;;;;;5036381;28;20044;-73
2023/01/31 06:27:55;;;;;;;23.10;4.10;;;;;;;;;;5052775;28;20044;-73
2023/01/31 06:30:21;;;;;;;25.83;6.15;;;;;;;;;;5036263;28;20091;-73
2023/01/31 06:32:47;;;;;;;27.02;5.15;;;;;;;;;;5052464;28;20494;-73
2023/01/31 06:35:13;;;;;;;21.55;3.50;;;;;;;;;;5036331;28;20037;-72
2023/01/31 06:37:39;;;;;;;23.70;3.75;;;;;;;;;;5052442;28;20045;-73
2023/01/31 06:40:05;;;;;;;22.67;3.65;;;;;;;;;;5054076;28;20037;-73
2023/01/31 06:42:31;;;;;;;30.65;4.65;;;;;;;;;;5052327;28;20041;-73
2023/01/31 06:44:58;;;;;;;18.67;3.72;;;;;;;;;;5019091;28;20041;-72
2023/01/31 06:47:24;;;;;;;24.67;3.38;;;;;;;;;;5035611;28;20037;-73
2023/01/31 06:49:50;;;;;;;19.63;3.95;;;;;;;;;;5052278;28;20415;-73
2023/01/31 06:52:16;;;;;;;28.48;4.00;;;;;;;;;;5035988;28;20072;-72
2023/01/31 06:54:42;;;;;;;21.40;3.45;;;;;;;;;;5052141;28;20048;-73
2023/01/31 06:57:08;;;;;;;23.77;3.95;;;;;;;;;;5052668;28;20037;-73
2023/01/31 06:59:34;;;;;;;19.63;3.38;;;;;;;;;;5051882;28;20072;-72
2023/01/31 07:02:00;;;;;;;17.95;3.88;;;;;;;;;;5052698;28;20584;-73
2023/01/31 07:04:26;;;;;;;17.27;3.10;;;;;;;;;;5052243;28;20068;-73
2023/01/31 07:06:52;;;;;;;25.58;3.47;;;;;;;;;;5052072;28;20052;-72
2023/01/31 07:09:18;;;;;;;21.30;3.75;;;;;;;;;;5035753;28;20040;-73
2023/01/31 07:11:44;;;;;;;16.67;3.97;;;;;;;;;;5051782;28;20091;-73
2023/01/31 07:14:10;;;;;;;21.50;3.72;;;;;;;;;;5035942;28;20033;-73
2023/01/31 07:16:39;;;;;;;21.50;2.92;;;;;;;;;;5053093;28;20510;-73
2023/01/31 07:19:05;;;;;;;20.92;3.40;;;;;;;;;;5052203;28;20490;-72
2023/01/31 07:21:32;;;;;;;19.08;2.80;;;;;;;;;;5051883;28;20032;-73
2023/01/31 07:23:58;;;;;;;18.23;3.35;;;;;;;;;;5053236;28;20128;-72
2023/01/31 07:26:24;;;;;;;23.98;2.90;;;;;;;;;;5052151;28;20049;-73
2023/01/31 07:28:52;;;;;;;19.77;2.90;;;;;;;;;;5018776;28;20100;-73
2023/01/31 07:31:18;;;;;;;23.95;3.63;;;;;;;;;;5052987;28;20044;-73
2023/01/31 07:33:44;;;;;;;22.08;3.80;;;;;;;;;;5050937;28;20045;-73
2023/01/31 07:36:12;;;;;;;19.48;3.38;;;;;;;;;;5052055;28;20048;-73
2023/01/31 07:38:38;;;;;;;26.77;3.92;;;;;;;;;;5051127;28;20115;-73
2023/01/31 07:41:04;;;;;;;19.05;2.67;;;;;;;;;;5053084;28;20075;-73
2023/01/31 07:43:31;;;;;;;20.17;4.00;;;;;;;;;;5051944;28;20518;-73
2023/01/31 07:45:58;;;;;;;22.85;3.22;;;;;;;;;;5051395;28;20037;-73
2023/01/31 07:48:24;;;;;;;24.08;3.75;;;;;;;;;;5051626;28;20068;-73
2023/01/31 07:50:51;;;;;;;19.40;2.75;;;;;;;;;;5050843;28;20051;-73
2023/01/31 07:53:17;;;;;;;28.98;3.65;;;;;;;;;;5051587;28;20037;-73
2023/01/31 07:55:46;;;;;;;23.92;3.42;;;;;;;;;;5051021;28;20036;-73
2023/01/31 07:58:16;;;;;;;20.75;3.20;;;;;;;;;;5051182;28;20402;-73
2023/01/31 08:03:31;;;;;;;17.88;2.92;;;;;;;;;;5051284;28;20174;-72
2023/01/31 08:05:57;;;;;;;18.83;2.72;;;;;;;;;;5050894;28;20044;-73
2023/01/31 08:08:23;;;;;;;17.15;3.50;;;;;;;;;;5052695;28;20561;-72
2023/01/31 08:10:49;;;;;;;21.13;3.22;;;;;;;;;;5051819;28;20532;-73
2023/01/31 08:13:15;;;;;;;27.58;4.30;;;;;;;;;;5051294;28;20033;-73
2023/01/31 08:15:41;;;;;;;21.08;4.18;;;;;;;;;;5050462;28;20469;-73
2023/01/31 08:18:07;;;;;;;20.70;4.18;;;;;;;;;;5051240;28;20108;-73
2023/01/31 08:20:36;;;;;;;20.52;4.28;;;;;;;;;;5050787;28;20049;-73
2023/01/31 08:23:02;;;;;;;24.63;4.45;;;;;;;;;;5050423;28;20098;-73
2023/01/31 08:25:29;;;;;;;21.70;4.40;;;;;;;;;;5034349;28;20045;-73
2023/01/31 08:27:56;;;;;;;26.42;4.35;;;;;;;;;;5050659;28;20494;-73
2023/01/31 08:30:22;;;;;;;25.40;4.32;;;;;;;;;;5051126;28;20552;-73
2023/01/31 08:32:49;;;;;;;16.42;3.10;;;;;;;;;;5050522;28;20477;-73
2023/01/31 08:35:15;;;;;;;15.35;3.15;;;;;;;;;;5050503;28;20063;-73
2023/01/31 08:37:41;;;;;;;21.20;3.60;;;;;;;;;;5050792;28;20047;-70
2023/01/31 08:40:07;;;;;;;28.38;3.75;;;;;;;;;;5050950;28;20076;-70
2023/01/31 08:42:33;;;;;;;20.02;2.92;;;;;;;;;;5050776;28;20072;-73
2023/01/31 08:44:59;;;;;;;16.08;3.75;;;;;;;;;;5050238;28;20041;-73
2023/01/31 08:47:25;;;;;;;16.65;3.08;;;;;;;;;;5050797;28;20051;-73
2023/01/31 08:49:51;;;;;;;20.15;2.75;;;;;;;;;;5033802;28;20052;-73
2023/01/31 08:52:17;;;;;;;13.18;3.20;;;;;;;;;;5050526;28;20045;-72
2023/01/31 08:54:43;;;;;;;18.15;3.78;;;;;;;;;;5050692;28;20041;-73
2023/01/31 08:57:10;;;;;;;19.25;2.83;;;;;;;;;;5034385;28;20029;-73
2023/01/31 08:59:36;;;;;;;18.80;3.25;;;;;;;;;;5051730;28;20085;-72
2023/01/31 09:02:02;;;;;;;20.80;2.90;;;;;;;;;;5050075;28;20077;-73
2023/01/31 09:04:28;;;;;;;21.90;2.55;;;;;;;;;;5050614;28;20507;-73
2023/01/31 09:06:54;;;;;;;22.38;2.95;;;;;;;;;;5051393;28;20073;-73
2023/01/31 09:09:21;;;;;;;19.10;2.63;;;;;;;;;;5052482;28;20036;-73
2023/01/31 09:11:47;;;;;;;15.50;3.17;;;;;;;;;;5037712;28;20123;-73
2023/01/31 09:14:13;;;;;;;21.17;2.83;;;;;;;;;;5037640;28;20072;-73
2023/01/31 09:16:39;;;;;;;16.92;2.78;;;;;;;;;;5054271;28;20068;-73
2023/01/31 09:19:05;;;;;;;19.40;3.53;;;;;;;;;;5053888;28;20073;-73
2023/01/31 09:21:31;;;;;;;19.15;3.20;;;;;;;;;;5054262;28;20493;-72
2023/01/31 09:23:58;;;;;;;24.88;3.22;;;;;;;;;;5053815;28;20099;-73
2023/01/31 09:26:25;;;;;;;21.00;3.45;;;;;;;;;;5037835;28;20490;-72
2023/01/31 09:28:51;;;;;;;19.38;2.72;;;;;;;;;;5055158;28;20374;-73
2023/01/31 09:31:19;;;;;;;19.20;2.65;;;;;;;;;;5053914;28;20047;-73
2023/01/31 09:33:45;;;;;;;16.60;3.50;;;;;;;;;;5055460;28;20074;-73
2023/01/31 09:36:15;;;;;;;19.35;3.15;;;;;;;;;;5036909;28;20099;-73
2023/01/31 09:38:41;;;;;;;19.08;2.80;;;;;;;;;;5054790;28;20489;-73
2023/01/31 09:41:26;;;;;;;19.85;2.92;;;;;;;;;;5053537;28;20064;-73
2023/01/31 09:43:55;;;;;;;19.73;3.17;;;;;;;;;;5039550;28;20066;-73
2023/01/31 09:46:23;;;;;;;18.85;2.97;;;;;;;;;;5053849;28;20041;-73
2023/01/31 09:48:52;;;;;;;21.88;3.25;;;;;;;;;;5037444;28;20170;-72
2023/01/31 09:51:18;;;;;;;23.67;3.83;;;;;;;;;;5053630;28;20044;-73
2023/01/31 09:53:45;;;;;;;18.23;3.40;;;;;;;;;;5053418;28;20029;-73
2023/01/31 09:56:14;;;;;;;17.20;3.50;;;;;;;;;;5053224;28;20421;-73
2023/01/31 09:59:02;;;;;;;23.65;4.20;;;;;;;;;;5053075;28;20049;-73
2023/01/31 10:01:31;;;;;;;27.67;3.85;;;;;;;;;;5053485;28;20049;-73
2023/01/31 10:04:05;;;;;;;19.05;3.70;;;;;;;;;;5052874;28;20083;-73
2023/01/31 10:06:36;;;;;;;23.05;3.60;;;;;;;;;;5053443;28;20055;-73
2023/01/31 10:09:16;;;;;;;21.30;4.57;;;;;;;;;;5053180;28;20512;-73
2023/01/31 10:11:57;;;;;;;25.00;4.90;;;;;;;;;;5053510;28;20486;-73
2023/01/31 10:14:26;;;;;;;22.00;4.47;;;;;;;;;;5054679;28;20037;-73
2023/01/31 10:17:00;;;;;;;25.55;3.95;;;;;;;;;;5053121;28;20037;-72
2023/01/31 10:19:30;;;;;;;21.00;4.30;;;;;;;;;;5053054;28;20033;-73
2023/01/31 10:22:00;;;;;;;23.45;3.78;;;;;;;;;;5053270;28;20474;-73
2023/01/31 10:24:31;;;;;;;19.90;3.78;;;;;;;;;;5053221;28;20044;-73
2023/01/31 10:27:02;;;;;;;20.90;4.00;;;;;;;;;;5054080;28;20119;-73
2023/01/31 10:29:33;;;;;;;24.52;4.22;;;;;;;;;;5053198;28;20037;-73
2023/01/31 10:32:04;;;;;;;22.73;3.40;;;;;;;;;;5052451;28;20044;-73
2023/01/31 10:34:33;;;;;;;20.02;4.13;;;;;;;;;;5036252;28;20049;-73
2023/01/31 10:37:16;;;;;;;17.83;3.30;;;;;;;;;;5036031;28;20037;-73
2023/01/31 10:39:45;;;;;;;19.05;2.88;;;;;;;;;;5053032;28;20037;-74
2023/01/31 10:42:20;;;;;;;21.55;3.78;;;;;;;;;;5036000;28;20501;-74
2023/01/31 10:45:02;;;;;;;25.80;3.73;;;;;;;;;;5052803;28;20048;-73
2023/01/31 10:47:35;;;;;;;30.10;3.33;;;;;;;;;;5040530;28;20041;-73
2023/01/31 10:50:04;;;;;;;25.88;4.18;;;;;;;;;;5053821;28;20059;-73
2023/01/31 10:52:30;;;;;;;21.02;3.33;;;;;;;;;;5053959;28;20037;-73
2023/01/31 10:55:23;;;;;;;25.13;3.65;;;;;;;;;;5052535;28;20076;-73
2023/01/31 10:57:49;;;;;;;28.58;3.78;;;;;;;;;;5037319;28;20413;-74
2023/01/31 11:00:19;;;;;;;28.08;3.70;;;;;;;;;;5035480;28;20049;-74
2023/01/31 11:02:45;;;;;;;21.08;3.42;;;;;;;;;;5035785;28;20103;-73
2023/01/31 11:05:15;;;;;;;24.92;3.80;;;;;;;;;;5051931;28;20037;-73
2023/01/31 11:07:42;;;;;;;24.23;3.45;;;;;;;;;;5052534;28;20440;-73
2023/01/31 11:10:22;;;;;;;25.58;3.67;;;;;;;;;;5051926;28;20390;-73
2023/01/31 11:13:08;;;;;;;21.80;3.70;;;;;;;;;;5052371;28;20398;-74
2023/01/31 11:15:34;;;;;;;;;;;;;;;;;;5052502;28;20120;-74
2023/01/31 11:18:00;;;;;;;25.55;3.67;;;;;;;;;;5052099;28;20008;-73
2023/01/31 11:20:29;;;;;;;15.77;3.60;;;;;;;;;;5052469;28;20090;-73
2023/01/31 11:22:56;;;;;;;20.40;3.40;;;;;;;;;;5051858;28;20441;-73
2023/01/31 11:25:22;;;;;;;18.80;3.92;;;;;;;;;;5051420;28;20110;-73
2023/01/31 11:27:49;;;;;;;27.15;5.15;;;;;;;;;;5052345;28;20528;-73
2023/01/31 11:30:18;;;;;;;20.52;3.35;;;;;;;;;;5052833;28;20048;-73
2023/01/31 11:32:45;;;;;;;17.90;3.10;;;;;;;;;;5051359;28;20486;-73
2023/01/31 11:35:14;;;;;;;23.27;2.90;;;;;;;;;;5034547;28;20047;-73
2023/01/31 11:37:51;;;;;;;18.38;3.00;;;;;;;;;;5051623;28;20071;-73
2023/01/31 11:40:36;;;;;;;14.60;2.60;;;;;;;;;;5034533;28;20076;-73
2023/01/31 11:43:02;;;;;;;18.98;2.50;;;;;;;;;;5051556;28;20124;-73
2023/01/31 11:45:30;;;;;;;12.95;2.60;;;;;;;;;;5051183;28;20083;-73
2023/01/31 11:47:58;;;;;;;18.23;2.60;;;;;;;;;;5051812;28;20551;-73
2023/01/31 11:50:26;;;;;;;18.30;2.63;;;;;;;;;;5051056;28;20045;-72
2023/01/31 11:52:56;;;;;;;12.57;2.40;;;;;;;;;;5051429;28;20124;-73
2023/01/31 11:55:23;;;;;;;19.17;2.95;;;;;;;;;;5050799;28;20052;-73
2023/01/31 11:57:54;;;;;;;17.38;2.45;;;;;;;;;;5051446;28;20076;-73
2023/01/31 12:00:25;;;;;;;13.48;2.45;;;;;;;;;;5050827;28;20049;-73
2023/01/31 12:03:02;;;;;;;15.90;3.47;;;;;;;;;;5051268;28;20438;-73
2023/01/31 12:05:36;;;;;;;17.55;2.72;;;;;;;;;;5050843;28;20048;-73
2023/01/31 12:08:02;;;;;;;15.57;3.05;;;;;;;;;;5051184;28;20094;-73
2023/01/31 12:10:40;;;;;;;16.85;3.00;;;;;;;;;;5050707;28;20422;-73
2023/01/31 12:13:17;;;;;;;17.50;2.60;;;;;;;;;;5051024;28;20041;-74
2023/01/31 12:15:55;;;;;;;20.52;2.88;;;;;;;;;;5051379;28;20489;-73
2023/01/31 12:18:27;;;;;;;18.05;2.47;;;;;;;;;;5050603;28;20051;-73
2023/01/31 12:21:05;;;;;;;17.83;2.88;;;;;;;;;;5051123;28;20041;-73
2023/01/31 12:23:46;;;;;;;18.02;2.60;;;;;;;;;;5038621;28;20425;-73
2023/01/31 12:26:28;;;;;;;16.05;2.28;;;;;;;;;;5050262;28;20041;-73
2023/01/31 12:29:03;;;;;;;13.10;2.35;;;;;;;;;;5050770;28;20045;-73
2023/01/31 12:31:41;;;;;;;13.95;2.70;;;;;;;;;;5050838;28;20441;-73
2023/01/31 12:34:23;;;;;;;15.20;2.63;;;;;;;;;;5050866;28;20045;-73
2023/01/31 12:37:05;;;;;;;15.20;2.67;;;;;;;;;;5052412;28;20374;-73
2023/01/31 12:39:37;;;;;;;14.10;2.33;;;;;;;;;;5050419;28;20074;-73
2023/01/31 12:42:03;;;;;;;15.10;2.75;;;;;;;;;;5050753;28;20040;-73
2023/01/31 12:44:43;;;;;;;14.95;2.58;;;;;;;;;;5052567;28;20045;-73
2023/01/31 12:47:09;;;;;;;12.65;2.42;;;;;;;;;;5055273;28;20440;-73
2023/01/31 12:49:55;;;;;;;13.25;2.83;;;;;;;;;;5054999;28;20125;-73
2023/01/31 12:52:30;;;;;;;15.23;3.08;;;;;;;;;;5047872;28;20509;-73
2023/01/31 12:55:17;;;;;;;11.98;2.35;;;;;;;;;;5055130;28;20044;-73
2023/01/31 12:57:49;;;;;;;17.35;2.50;;;;;;;;;;5043177;28;20041;-73
2023/01/31 13:00:15;;;;;;;14.05;2.65;;;;;;;;;;5037184;28;20078;-73
2023/01/31 13:02:54;;;;;;;14.75;3.25;;;;;;;;;;5054583;28;20044;-73
2023/01/31 13:05:23;;;;;;;11.88;2.40;;;;;;;;;;5054383;28;20497;-73
2023/01/31 13:08:01;;;;;;;15.75;2.50;;;;;;;;;;5038326;28;20045;-73
2023/01/31 13:10:36;;;;;;;14.73;3.25;;;;;;;;;;5054236;28;20102;-73
2023/01/31 13:13:02;;;;;;;13.50;2.95;;;;;;;;;;5054532;28;20142;-72
2023/01/31 13:15:51;;;;;;;15.25;2.58;;;;;;;;;;5038795;28;20186;-74
2023/01/31 13:18:53;;;;;;;;;;;;;;;;;;;;;
2023/01/31 13:21:38;;;;;;;10.32;2.25;;;;;;;;;;5066502;28;20111;-73
2023/01/31 13:24:16;;;;;;;12.90;2.28;;;;;;;;;;5074063;28;20051;-73
2023/01/31 13:27:01;;;;;;;15.85;2.92;;;;;;;;;;5073873;28;20043;-73
2023/01/31 13:29:38;;;;;;;16.48;2.70;;;;;;;;;;5074906;28;20044;-73
2023/01/31 13:32:22;;;;;;;14.98;3.45;;;;;;;;;;5074116;28;20047;-73
2023/01/31 13:34:53;;;;;;;13.77;3.38;;;;;;;;;;5053306;28;20443;-73
2023/01/31 13:37:20;;;;;;;16.55;2.75;;;;;;;;;;5073757;28;20040;-73
2023/01/31 13:40:04;;;;;;;11.73;2.65;;;;;;;;;;5057413;28;20041;-73
2023/01/31 13:42:32;;;;;;;11.85;2.08;;;;;;;;;;5073570;28;20426;-73
2023/01/31 13:45:00;;;;;;;14.05;2.38;;;;;;;;;;5073820;28;20063;-74
2023/01/31 13:47:38;;;;;;;16.90;2.53;;;;;;;;;;5057152;28;20562;-73
2023/01/31 13:50:07;;;;;;;13.80;2.50;;;;;;;;;;5032531;28;20052;-73
2023/01/31 13:52:35;;;;;;;16.88;2.75;;;;;;;;;;5074525;28;20044;-73
2023/01/31 13:55:03;;;;;;;11.82;2.45;;;;;;;;;;5067159;28;20113;-72
2023/01/31 13:57:45;;;;;;;12.13;2.97;;;;;;;;;;5067305;28;20489;-72
2023/01/31 14:00:20;;;;;;;15.30;2.83;;;;;;;;;;5073575;28;20080;-72
2023/01/31 14:03:00;;;;;;;16.67;3.33;;;;;;;;;;5073879;28;20056;-73
2023/01/31 14:05:47;;;;;;;16.77;2.75;;;;;;;;;;5049324;28;20386;-73
2023/01/31 14:08:26;;;;;;;13.48;2.75;;;;;;;;;;5073800;28;20166;-73
2023/01/31 14:10:52;;;;;;;11.95;2.75;;;;;;;;;;5073677;28;20068;-73
2023/01/31 14:13:30;;;;;;;17.17;3.08;;;;;;;;;;5073273;28;20062;-73
2023/01/31 14:15:57;;;;;;;16.75;3.58;;;;;;;;;;5056760;28;20493;-73
2023/01/31 14:18:38;;;;;;;13.20;2.50;;;;;;;;;;5072890;28;20086;-73
2023/01/31 14:21:26;;;;;;;15.68;3.03;;;;;;;;;;5072861;28;20052;-73
2023/01/31 14:24:45;;;;;;;19.85;3.28;;;;;;;;;;5021314;28;20049;-73
2023/01/31 14:27:30;;;;;;;13.57;3.47;;;;;;;;;;5008860;28;20053;-73
2023/01/31 14:30:05;;;;;;;18.15;2.97;;;;;;;;;;5048329;28;20056;-73
2023/01/31 14:32:34;;;;;;;16.20;3.22;;;;;;;;;;5072866;28;20036;-73
2023/01/31 14:35:07;;;;;;;13.15;3.03;;;;;;;;;;5044372;28;20387;-73
2023/01/31 14:37:53;;;;;;;17.23;2.80;;;;;;;;;;5072560;28;20036;-73
2023/01/31 14:40:19;;;;;;;19.95;4.43;;;;;;;;;;5068873;28;20044;-73
2023/01/31 14:42:52;;;;;;;14.15;3.22;;;;;;;;;;5072317;28;20106;-73
2023/01/31 14:45:26;;;;;;;18.13;2.60;;;;;;;;;;5072673;28;20080;-73
2023/01/31 14:47:52;;;;;;;20.95;3.47;;;;;;;;;;5073001;28;20511;-72
2023/01/31 14:50:31;;;;;;;22.33;4.32;;;;;;;;;;5072474;28;20080;-73
2023/01/31 14:53:06;;;;;;;18.23;3.63;;;;;;;;;;5072702;28;20040;-73
2023/01/31 14:55:52;;;;;;;26.88;5.80;;;;;;;;;;5055544;28;20045;-73